Terminal Aerodrome Forecast
Issued by NWS

Home | Current Version | Previous Version | Text Only | Print | Product List | Glossary Off
Versions: 1 2 3 4 5 6 7 8 9 10 11 12 13 14 15 16 17 18 19

000
FTUS43 KGRB 271100
TAFAUW
TAF
KAUW 271125Z 2712/2812 VRB03KT 6SM BR OVC006
     FM271700 VRB03KT P6SM BKN012
     FM280200 17003KT 5SM BR OVC009=

USA.gov is the U.S. government's official web portal to all federal, state and local government web resources and services.